Albert, Kansas
Current Conditions -  °F | °C
As of 7:55 PM on Sunday 21 Dec 2014 (Local Time) from KGBD Reporting Station
Overcast Overcast  
Wind Chill: 37°   Ceiling: 2500
Heat Index: 43°   Visibility: 5mi
Dew Point: 37°   Wind: 12mph
Humidity: 81%   Direction: 170°S
Pressure: 29.64"   Gusts: NA
Location:  38.45°N, 99.01°W
Report Text: KGBD 220155Z AUTO 17010KT 5SM FEW010 OVC025 06/03 A2964 RMK AO1
Loading
Personal Weather Stations






























Interactive Weather Map New forecast layout! Learn more

10-Day Weather Forecast

Advertisements
Track Severe Weather on mobile